Riverside, WA (98849)

2:46 PM PST on February 27, 2015 (GMT -0800)
MesoWest OMAK WA US AGRIMET | Change Station
CLOSE
Current Station
Personal Weather Station
Location: Omak, WA
Elevation: 1233 ft
Nearby Weather Stations
Active Advisory: Wind Advisory

Elev 1233 ft 48.40 °N, 119.58 °W | Updated 46 minutes ago

Overcast
Overcast
43 °F
Feels Like 37 °F
N
11
Wind Variable Wind from NNE
Gusts 24.0 mph

Today
High -- | Low -- °F
--% Chance of Precip.
Yesterday
High -- | Low -- °F
Precip. -- in
6:44 AM 5:39 PM
Waxing Gibbous, 72% visible
Pressure 29.89 in
Visibility 10.0 miles
Clouds Overcast 5500 ft
Windchill 37 °F
Dew Point 32 °F
Humidity 65%
Rainfall 0.00 in
Snow Depth Not available.
UV 1 out of 12
Pollen 3.80 out of 12
Air Quality Not available.
Flu Activity Not available.
METAR KOMK 272153Z AUTO 01015KT 10SM OVC055 06/01 A2986 RMK AO2 PK WND 01028/2104 RAB2058E09B40E50 SLP122 P0000 T00560006

More Conditions Fewer Conditions

Pressure 29.89 in
Visibility 10.0 miles
Clouds Overcast 5500 ft
Windchill 37 °F
Dew Point 32 °F
Humidity 65%
Rainfall 0.00 in
Snow Depth Not available.
UV 1 out of 12
Pollen 3.80 out of 12
Air Quality Not available.
Flu Activity Not available.
METAR KOMK 272153Z AUTO 01015KT 10SM OVC055 06/01 A2986 RMK AO2 PK WND 01028/2104 RAB2058E09B40E50 SLP122 P0000 T00560006

More Conditions Fewer Conditions

10-Day Weather Forecast

Almanac

Astronomy

Feb. 27, 2015 Rise Set
Actual Time
Civil Twilight
Nautical Twilight
Astronomical Twilight
Moon
Length of Visible Light
Length of Day
Tomorrow will be .
, % of the Moon is Illuminated

Today's Extremes

State Highs State Lows

Community

WunderPhotos

Upload Photos

1,800,862 photos uploaded!

WunderBlogs® & News

Nearby

Air Quality

  Air Quality AQ Index Pollutant
Not available.

Snow Depth

Station Depth Elevation

Earthquake Activity

City Distance Mag. Time & Date
Minimum magnitude displayed is 2.5.

Coastal Water Temperatures

Place Temperature

Nearby Weather Stations

Wind Advisory
Statement as of 2:35 PM PST on February 27, 2015

... Wind Advisory in effect until 10 am PST Saturday...

The National Weather Service in Spokane has issued a Wind
Advisory... which is in effect until 10 am PST Saturday.

* Winds... north 20 to 30 mph with gusts up to 40 mph.

* Timing... windy conditions will peak late tonight and slowly
decrease Saturday morning.

* Impacts... scattered power outages are possible as tree branches
break into power lines. Unachored high surface area objects may
be shifted or toppled. In addition wind chill temperatures
Saturday morning will approach single digits above zero.

Precautionary/preparedness actions...

A Wind Advisory means that winds of 30 to 40 mph are expected.
Winds this strong can make driving difficult... especially for
high profile vehicles. Use extra caution.